createdAt,value
2022-12-04T00:02:10.835Z,14.82
2022-12-04T00:04:37.387Z,14.73
2022-12-04T00:07:04.384Z,15.18
2022-12-04T00:09:31.104Z,14.25
2022-12-04T00:11:57.762Z,13.48
2022-12-04T00:14:24.270Z,14.57
2022-12-04T00:16:50.835Z,15.75
2022-12-04T00:19:17.514Z,14.63
2022-12-04T00:21:45.465Z,14.07
2022-12-04T00:24:12.433Z,15.02
2022-12-04T00:26:38.929Z,15.32
2022-12-04T00:29:05.561Z,13.98
2022-12-04T00:31:32.375Z,14.15
2022-12-04T00:33:59.144Z,6.95
2022-12-04T00:36:27.967Z,14.90
2022-12-04T00:38:54.919Z,15.15
2022-12-04T00:41:25.908Z,14.25
2022-12-04T00:43:52.578Z,14.68
2022-12-04T00:46:19.730Z,13.93
2022-12-04T00:48:46.791Z,15.65
2022-12-04T00:51:24.306Z,13.52
2022-12-04T00:53:52.599Z,13.10
2022-12-04T00:56:27.385Z,14.45
2022-12-04T00:58:56.738Z,14.23
2022-12-04T01:01:24.761Z,13.45
2022-12-04T01:03:51.587Z,13.95
2022-12-04T01:06:25.604Z,13.93
2022-12-04T01:08:53.685Z,14.43
2022-12-04T01:11:21.627Z,14.10
2022-12-04T01:13:48.048Z,14.15
2022-12-04T01:16:30.016Z,14.30
2022-12-04T01:18:57.149Z,13.90
2022-12-04T01:21:23.764Z,15.20
2022-12-04T01:23:50.424Z,14.48
2022-12-04T01:26:17.232Z,14.45
2022-12-04T01:28:44.006Z,13.40
2022-12-04T01:31:14.520Z,14.32
2022-12-04T01:33:42.052Z,14.60
2022-12-04T01:36:11.683Z,14.27
2022-12-04T01:38:39.205Z,14.00
2022-12-04T01:41:06.660Z,13.73
2022-12-04T01:43:36.933Z,14.55
2022-12-04T01:46:04.843Z,14.43
2022-12-04T01:48:34.328Z,14.32
2022-12-04T01:51:26.981Z,13.93
2022-12-04T01:54:00.571Z,13.43
2022-12-04T01:56:33.386Z,15.07
2022-12-04T01:59:01.657Z,14.55
2022-12-04T02:01:31.868Z,13.50
2022-12-04T02:04:02.925Z,13.40
2022-12-04T02:06:29.376Z,13.52
2022-12-04T02:08:55.897Z,15.30
2022-12-04T02:11:27.273Z,13.35
2022-12-04T02:14:07.590Z,13.57
2022-12-04T02:17:02.211Z,13.43
2022-12-04T02:22:30.155Z,12.98
2022-12-04T02:25:28.028Z,14.75
2022-12-04T02:28:02.356Z,13.55
2022-12-04T02:30:31.282Z,12.85
2022-12-04T02:33:09.941Z,14.30
2022-12-04T02:35:43.314Z,13.32
2022-12-04T02:38:35.695Z,14.00
2022-12-04T02:41:17.217Z,13.52
2022-12-04T02:43:56.275Z,11.95
2022-12-04T02:46:36.992Z,13.13
2022-12-04T02:49:08.345Z,12.57
2022-12-04T02:51:39.344Z,12.65
2022-12-04T02:54:12.011Z,13.32
2022-12-04T02:56:43.507Z,13.52
2022-12-04T02:59:25.137Z,12.63
2022-12-04T03:01:56.981Z,13.15
2022-12-04T03:04:28.120Z,13.18
2022-12-04T03:07:00.555Z,12.52
2022-12-04T03:09:36.791Z,12.82
2022-12-04T03:12:44.307Z,13.40
2022-12-04T03:17:51.892Z,11.60
2022-12-04T03:20:19.649Z,12.50
2022-12-04T03:22:52.759Z,12.48
2022-12-04T03:25:19.366Z,14.63
2022-12-04T03:28:05.251Z,12.57
2022-12-04T03:30:45.343Z,12.20
2022-12-04T03:33:19.944Z,13.50
2022-12-04T03:35:55.629Z,13.13
2022-12-04T03:38:34.407Z,12.65
2022-12-04T03:41:12.064Z,12.60
2022-12-04T03:43:58.841Z,12.10
2022-12-04T03:46:39.467Z,13.13
2022-12-04T03:49:37.146Z,11.85
2022-12-04T03:52:22.883Z,12.32
2022-12-04T03:55:02.204Z,13.65
2022-12-04T03:57:34.578Z,12.70
2022-12-04T04:00:16.430Z,11.65
2022-12-04T04:02:50.589Z,13.10
2022-12-04T04:05:19.325Z,12.80
2022-12-04T04:07:51.655Z,12.88
2022-12-04T04:10:22.689Z,12.32
2022-12-04T04:13:20.587Z,11.13
2022-12-04T04:16:14.615Z,11.77
2022-12-04T04:19:01.287Z,11.45
2022-12-04T04:21:51.168Z,11.63
2022-12-04T04:25:13.362Z,11.93
2022-12-04T04:27:39.907Z,10.77
2022-12-04T04:30:07.572Z,11.38
2022-12-04T04:32:50.752Z,11.25
2022-12-04T04:35:25.233Z,10.75
2022-12-04T04:38:09.784Z,10.98
2022-12-04T04:40:52.990Z,11.55
2022-12-04T04:44:15.322Z,10.95
2022-12-04T04:46:48.448Z,10.20
2022-12-04T04:49:16.493Z,12.18
2022-12-04T04:51:44.064Z,10.82
2022-12-04T04:54:14.552Z,12.05
2022-12-04T04:56:43.183Z,10.63
2022-12-04T04:59:10.287Z,11.65
2022-12-04T05:01:38.860Z,11.00
2022-12-04T05:04:06.608Z,10.32
2022-12-04T05:06:33.074Z,10.73
2022-12-04T05:08:59.758Z,10.48
2022-12-04T05:11:26.387Z,11.10
2022-12-04T05:13:53.021Z,10.55
2022-12-04T05:16:19.548Z,9.95
2022-12-04T05:19:06.060Z,10.90
2022-12-04T05:21:33.665Z,10.40
2022-12-04T05:24:00.822Z,9.80
2022-12-04T05:26:28.235Z,9.55
2022-12-04T05:28:54.683Z,9.88
2022-12-04T05:31:21.202Z,9.40
2022-12-04T05:33:47.758Z,9.35
2022-12-04T05:36:14.278Z,9.55
2022-12-04T05:38:40.713Z,9.75
2022-12-04T05:41:07.586Z,9.05
2022-12-04T05:43:35.039Z,10.02
2022-12-04T05:46:06.834Z,10.18
2022-12-04T05:48:34.928Z,8.90
2022-12-04T05:51:05.437Z,9.73
2022-12-04T05:53:31.876Z,9.73
2022-12-04T05:56:00.884Z,9.00
2022-12-04T05:58:28.329Z,8.93
2022-12-04T06:00:55.167Z,9.52
2022-12-04T06:03:22.633Z,9.45
2022-12-04T06:05:49.410Z,9.30
2022-12-04T06:08:15.921Z,9.38
2022-12-04T06:10:42.809Z,8.95
2022-12-04T06:13:09.377Z,9.30
2022-12-04T06:15:40.077Z,9.50
2022-12-04T06:18:07.093Z,8.98
2022-12-04T06:20:34.096Z,8.82
2022-12-04T06:23:00.733Z,10.15
2022-12-04T06:25:27.299Z,9.70
2022-12-04T06:27:53.783Z,9.25
2022-12-04T06:30:20.356Z,9.00
2022-12-04T06:32:46.977Z,9.80
2022-12-04T06:35:13.430Z,9.40
2022-12-04T06:37:40.040Z,9.88
2022-12-04T06:40:07.343Z,8.77
2022-12-04T06:42:33.758Z,9.15
2022-12-04T06:45:00.198Z,9.93
2022-12-04T06:47:26.751Z,8.57
2022-12-04T06:49:53.359Z,8.60
2022-12-04T06:52:20.031Z,9.10
2022-12-04T06:54:46.446Z,9.98
2022-12-04T06:57:12.975Z,9.90
2022-12-04T06:59:39.470Z,8.95
2022-12-04T07:02:10.712Z,9.02
2022-12-04T07:04:37.174Z,8.48
2022-12-04T07:07:03.608Z,8.15
2022-12-04T07:09:30.042Z,8.80
2022-12-04T07:11:56.880Z,8.23
2022-12-04T07:14:23.266Z,9.00
2022-12-04T07:16:49.773Z,7.97
2022-12-04T07:19:18.508Z,8.88
2022-12-04T07:21:44.984Z,8.38
2022-12-04T07:24:17.815Z,8.40
2022-12-04T07:26:45.209Z,8.18
2022-12-04T07:29:11.658Z,7.20
2022-12-04T07:31:38.210Z,6.63
2022-12-04T07:34:04.746Z,7.57
2022-12-04T07:36:31.410Z,7.70
2022-12-04T07:38:58.074Z,7.30
2022-12-04T07:41:24.902Z,7.80
2022-12-04T07:43:51.587Z,8.68
2022-12-04T07:46:21.478Z,8.25
2022-12-04T07:48:48.214Z,7.57
2022-12-04T07:51:21.018Z,7.68
2022-12-04T07:54:58.173Z,7.57
2022-12-04T07:57:28.269Z,6.95
2022-12-04T07:59:55.263Z,7.22
2022-12-04T08:02:22.105Z,7.30
2022-12-04T08:04:48.546Z,8.00
2022-12-04T08:07:15.033Z,6.78
2022-12-04T08:09:41.711Z,7.00
2022-12-04T08:12:08.168Z,7.30
2022-12-04T08:14:34.591Z,7.00
2022-12-04T08:17:02.769Z,7.43
2022-12-04T08:19:31.018Z,6.78
2022-12-04T08:21:57.656Z,6.70
2022-12-04T08:24:24.071Z,7.10
2022-12-04T08:26:50.595Z,7.18
2022-12-04T08:29:17.220Z,7.55
2022-12-04T08:31:46.022Z,7.30
2022-12-04T08:34:13.929Z,7.78
2022-12-04T08:36:40.399Z,8.73
2022-12-04T08:39:09.608Z,7.20
2022-12-04T08:41:36.007Z,7.22
2022-12-04T08:44:02.930Z,8.00
2022-12-04T08:46:29.920Z,7.65
2022-12-04T08:48:57.871Z,8.27
2022-12-04T08:51:27.795Z,7.88
2022-12-04T08:53:59.314Z,8.63
2022-12-04T08:56:27.482Z,8.38
2022-12-04T08:58:56.477Z,7.50
2022-12-04T09:01:23.699Z,8.55
2022-12-04T09:03:50.363Z,7.75
2022-12-04T09:06:17.722Z,7.13
2022-12-04T09:08:44.655Z,8.88
2022-12-04T09:11:20.473Z,7.93
2022-12-04T09:13:47.149Z,7.53
2022-12-04T09:16:18.023Z,7.70
2022-12-04T09:18:45.068Z,7.05
2022-12-04T09:21:13.838Z,7.78
2022-12-04T09:23:41.245Z,8.05
2022-12-04T09:26:26.556Z,8.27
2022-12-04T09:28:54.654Z,8.27
2022-12-04T09:31:22.322Z,8.18
2022-12-04T09:33:48.941Z,7.75
2022-12-04T09:36:18.142Z,7.63
2022-12-04T09:38:46.735Z,8.57
2022-12-04T09:41:31.960Z,8.20
2022-12-04T09:44:21.506Z,7.88
2022-12-04T09:47:06.591Z,8.07
2022-12-04T09:49:41.779Z,7.13
2022-12-04T09:52:33.426Z,7.03
2022-12-04T09:55:02.808Z,8.02
2022-12-04T09:57:40.405Z,8.15
2022-12-04T10:00:11.651Z,6.80
2022-12-04T10:02:41.430Z,8.15
2022-12-04T10:05:17.646Z,7.88
2022-12-04T10:08:06.207Z,9.23
2022-12-04T10:10:41.402Z,7.65
2022-12-04T10:13:23.607Z,7.97
2022-12-04T10:16:07.006Z,7.47
2022-12-04T10:18:58.521Z,8.38
2022-12-04T10:21:43.409Z,7.50
2022-12-04T10:24:22.033Z,7.63
2022-12-04T10:26:49.295Z,7.40
2022-12-04T10:29:30.895Z,8.45
2022-12-04T10:32:05.357Z,8.70
2022-12-04T10:34:32.378Z,7.20
2022-12-04T10:37:06.265Z,8.95
2022-12-04T10:39:41.635Z,8.02
2022-12-04T10:42:24.748Z,8.40
2022-12-04T10:44:52.452Z,8.25
2022-12-04T10:47:20.986Z,7.97
2022-12-04T10:49:48.121Z,12.30
2022-12-04T10:52:14.808Z,8.32
2022-12-04T10:55:01.009Z,8.40
2022-12-04T10:57:42.864Z,7.25
2022-12-04T11:00:33.301Z,8.70
2022-12-04T11:03:02.927Z,7.35
2022-12-04T11:05:35.939Z,7.82
2022-12-04T11:08:05.126Z,7.70
2022-12-04T11:10:36.658Z,7.97
2022-12-04T11:13:10.949Z,8.07
2022-12-04T11:15:46.202Z,8.27
2022-12-04T11:18:19.485Z,8.18
2022-12-04T11:21:13.576Z,7.78
2022-12-04T11:23:49.115Z,6.97
2022-12-04T11:26:18.679Z,8.45
2022-12-04T11:28:53.314Z,7.50
2022-12-04T11:31:22.872Z,8.70
2022-12-04T11:33:54.826Z,7.93
2022-12-04T11:36:34.622Z,8.30
2022-12-04T11:39:12.737Z,8.65
2022-12-04T11:41:40.194Z,9.18
2022-12-04T11:44:26.123Z,7.93
2022-12-04T11:46:55.949Z,8.55
2022-12-04T11:49:24.681Z,8.73
2022-12-04T11:52:10.379Z,8.07
2022-12-04T11:55:03.200Z,7.95
2022-12-04T11:57:53.187Z,8.30
2022-12-04T12:00:22.894Z,8.77
2022-12-04T12:03:17.683Z,8.73
2022-12-04T12:05:53.672Z,8.15
2022-12-04T12:08:42.040Z,8.15
2022-12-04T12:14:19.103Z,8.27
2022-12-04T12:17:34.953Z,7.53
2022-12-04T12:20:14.750Z,7.90
2022-12-04T12:22:47.773Z,8.13
2022-12-04T12:25:21.542Z,8.63
2022-12-04T12:28:01.497Z,8.57
2022-12-04T12:30:39.104Z,9.13
2022-12-04T12:33:19.626Z,10.35
2022-12-04T12:36:03.553Z,8.60
2022-12-04T12:38:38.716Z,8.60
2022-12-04T12:41:16.412Z,8.15
2022-12-04T12:43:48.834Z,8.55
2022-12-04T12:46:30.660Z,8.18
2022-12-04T12:49:45.095Z,8.80
2022-12-04T12:52:24.427Z,8.25
2022-12-04T12:55:23.374Z,7.95
2022-12-04T12:58:09.260Z,8.57
2022-12-04T13:00:49.596Z,9.23
2022-12-04T13:03:33.426Z,9.07
2022-12-04T13:06:06.125Z,7.43
2022-12-04T13:08:44.898Z,8.80
2022-12-04T13:13:59.183Z,8.23
2022-12-04T13:16:31.185Z,8.30
2022-12-04T13:19:07.897Z,9.43
2022-12-04T13:22:06.709Z,8.68
2022-12-04T13:24:45.531Z,8.68
2022-12-04T13:27:49.706Z,8.73
2022-12-04T13:30:23.422Z,9.85
2022-12-04T13:33:21.154Z,9.40
2022-12-04T13:36:03.399Z,9.02
2022-12-04T13:38:59.980Z,9.77
2022-12-04T13:41:28.257Z,9.63
2022-12-04T13:43:55.451Z,8.70
2022-12-04T13:46:22.391Z,9.77
2022-12-04T13:48:49.417Z,9.10
2022-12-04T13:51:26.197Z,9.85
2022-12-04T13:54:25.421Z,10.32
2022-12-04T13:56:55.482Z,9.52
2022-12-04T13:59:34.222Z,11.15
2022-12-04T14:02:08.224Z,10.57
2022-12-04T14:04:47.000Z,9.85
2022-12-04T14:07:26.925Z,9.85
2022-12-04T14:09:55.978Z,11.80
2022-12-04T14:12:33.497Z,11.30
2022-12-04T14:15:20.326Z,11.05
2022-12-04T14:18:16.384Z,11.00
2022-12-04T14:20:44.717Z,11.77
2022-12-04T14:23:25.730Z,11.30
2022-12-04T14:25:57.790Z,12.07
2022-12-04T14:28:30.428Z,11.38
2022-12-04T14:31:29.228Z,10.80
2022-12-04T14:34:29.219Z,11.07
2022-12-04T14:36:57.640Z,10.80
2022-12-04T14:39:44.684Z,10.80
2022-12-04T14:42:23.739Z,9.93
2022-12-04T14:44:57.395Z,10.55
2022-12-04T14:47:42.642Z,10.95
2022-12-04T14:50:25.426Z,10.70
2022-12-04T14:53:03.773Z,10.70
2022-12-04T14:56:01.196Z,9.60
2022-12-04T14:58:36.050Z,10.30
2022-12-04T15:01:27.076Z,9.88
2022-12-04T15:03:58.064Z,10.60
2022-12-04T15:06:27.511Z,9.43
2022-12-04T15:09:15.488Z,9.63
2022-12-04T15:12:06.634Z,8.82
2022-12-04T15:14:42.764Z,10.63
2022-12-04T15:17:11.429Z,10.20
2022-12-04T15:19:38.937Z,10.85
2022-12-04T15:22:12.259Z,8.75
2022-12-04T15:24:39.003Z,10.15
2022-12-04T15:27:06.975Z,9.65
2022-12-04T15:29:35.471Z,10.23
2022-12-04T15:32:08.264Z,10.10
2022-12-04T15:34:43.074Z,11.15
2022-12-04T15:37:21.886Z,13.48
2022-12-04T15:39:52.526Z,10.35
2022-12-04T15:42:29.636Z,10.20
2022-12-04T15:45:24.097Z,11.80
2022-12-04T15:47:55.151Z,9.98
2022-12-04T15:50:29.284Z,9.85
2022-12-04T15:53:03.687Z,9.48
2022-12-04T15:55:33.409Z,10.13
2022-12-04T15:58:05.169Z,9.95
2022-12-04T16:00:38.990Z,9.60
2022-12-04T16:03:46.557Z,9.50
2022-12-04T16:06:26.863Z,8.77
2022-12-04T16:08:59.352Z,9.55
2022-12-04T16:11:38.959Z,9.20
2022-12-04T16:14:15.600Z,9.00
2022-12-04T16:16:51.543Z,9.02
2022-12-04T16:19:32.860Z,9.00
2022-12-04T16:22:01.406Z,8.95
2022-12-04T16:24:28.142Z,10.10
2022-12-04T16:26:55.952Z,9.50
2022-12-04T16:29:23.551Z,9.50
2022-12-04T16:31:51.098Z,9.48
2022-12-04T16:34:18.387Z,9.75
2022-12-04T16:36:45.000Z,10.55
2022-12-04T16:39:11.566Z,9.07
2022-12-04T16:41:38.563Z,10.52
2022-12-04T16:44:13.397Z,9.38
2022-12-04T16:46:39.983Z,9.40
2022-12-04T16:49:07.764Z,10.35
2022-12-04T16:51:37.268Z,8.65
2022-12-04T16:54:03.951Z,9.55
2022-12-04T16:56:30.631Z,9.18
2022-12-04T16:58:57.035Z,9.95
2022-12-04T17:01:28.462Z,8.95
2022-12-04T17:03:55.027Z,9.27
2022-12-04T17:06:21.710Z,9.10
2022-12-04T17:08:48.146Z,8.85
2022-12-04T17:11:17.538Z,9.10
2022-12-04T17:13:45.783Z,9.60
2022-12-04T17:16:15.043Z,8.85
2022-12-04T17:18:44.565Z,10.20
2022-12-04T17:21:12.661Z,8.93
2022-12-04T17:23:39.552Z,10.25
2022-12-04T17:26:08.798Z,9.07
2022-12-04T17:28:36.327Z,9.73
2022-12-04T17:31:06.014Z,8.88
2022-12-04T17:33:33.571Z,9.85
2022-12-04T17:36:03.428Z,9.38
2022-12-04T17:38:30.009Z,11.02
2022-12-04T17:41:01.552Z,10.65
2022-12-04T17:43:32.537Z,10.73
2022-12-04T17:45:59.533Z,11.07
2022-12-04T17:48:27.401Z,10.95
2022-12-04T17:51:08.148Z,11.77
2022-12-04T17:53:35.521Z,10.88
2022-12-04T17:56:06.958Z,10.90
2022-12-04T17:58:34.388Z,11.30
2022-12-04T18:01:11.766Z,11.35
2022-12-04T18:03:39.237Z,11.52
2022-12-04T18:06:24.002Z,12.10
2022-12-04T18:08:51.683Z,11.75
2022-12-04T18:11:20.615Z,11.25
2022-12-04T18:14:00.285Z,10.80
2022-12-04T18:16:28.711Z,11.30
2022-12-04T18:18:56.526Z,11.63
2022-12-04T18:21:23.849Z,11.25
2022-12-04T18:23:50.935Z,12.75
2022-12-04T18:26:22.931Z,13.93
2022-12-04T18:28:50.202Z,17.48
2022-12-04T18:31:18.784Z,15.80
2022-12-04T18:33:45.675Z,14.98
2022-12-04T18:36:16.372Z,14.35
2022-12-04T18:38:43.376Z,14.43
2022-12-04T18:41:12.182Z,12.05
2022-12-04T18:46:09.990Z,13.38
2022-12-04T18:48:37.941Z,16.27
2022-12-04T18:51:20.453Z,15.18
2022-12-04T18:53:47.922Z,15.23
2022-12-04T18:56:15.132Z,13.30
2022-12-04T18:58:42.578Z,11.68
2022-12-04T19:01:11.686Z,12.70
2022-12-04T19:03:38.226Z,13.45
2022-12-04T19:06:05.269Z,12.07
2022-12-04T19:08:34.320Z,12.82
2022-12-04T19:11:14.255Z,14.30
2022-12-04T19:13:41.776Z,12.57
2022-12-04T19:16:13.021Z,12.95
2022-12-04T19:18:39.972Z,12.93
2022-12-04T19:21:07.231Z,13.10
2022-12-04T19:23:33.877Z,15.05
2022-12-04T19:26:01.485Z,14.13
2022-12-04T19:28:28.189Z,14.13
2022-12-04T19:30:54.849Z,13.48
2022-12-04T19:33:23.414Z,13.52
2022-12-04T19:36:01.065Z,13.95
2022-12-04T19:38:28.435Z,13.65
2022-12-04T19:41:12.206Z,12.77
2022-12-04T19:43:41.302Z,12.93
2022-12-04T19:46:10.238Z,13.10
2022-12-04T19:48:38.028Z,13.13
2022-12-04T19:51:10.503Z,13.32
2022-12-04T19:53:40.840Z,12.55
2022-12-04T19:56:10.661Z,14.57
2022-12-04T19:58:37.399Z,13.65
2022-12-04T20:01:08.653Z,12.35
2022-12-04T20:03:35.425Z,13.40
2022-12-04T20:06:07.746Z,14.65
2022-12-04T20:08:35.252Z,12.90
2022-12-04T20:11:06.882Z,14.15
2022-12-04T20:13:36.924Z,11.98
2022-12-04T20:16:05.192Z,13.52
2022-12-04T20:18:34.327Z,14.63
2022-12-04T20:21:02.067Z,14.30
2022-12-04T20:23:29.262Z,13.85
2022-12-04T20:25:55.693Z,14.77
2022-12-04T20:28:22.522Z,14.82
2022-12-04T20:30:50.175Z,15.73
2022-12-04T20:33:17.024Z,14.93
2022-12-04T20:35:43.442Z,15.52
2022-12-04T20:38:09.987Z,15.02
2022-12-04T20:40:36.544Z,14.15
2022-12-04T20:43:03.002Z,13.75
2022-12-04T20:45:30.636Z,14.77
2022-12-04T20:47:57.187Z,13.20
2022-12-04T20:50:23.739Z,14.18
2022-12-04T20:52:51.806Z,15.88
2022-12-04T20:55:18.511Z,13.40
2022-12-04T20:57:44.962Z,17.00
2022-12-04T21:00:11.921Z,17.70
2022-12-04T21:02:38.647Z,16.42
2022-12-04T21:05:05.440Z,15.57
2022-12-04T21:07:31.910Z,14.65
2022-12-04T21:09:58.758Z,15.23
2022-12-04T21:12:44.378Z,15.32
2022-12-04T21:15:29.621Z,15.15
2022-12-04T21:17:56.248Z,14.40
2022-12-04T21:20:22.861Z,14.63
2022-12-04T21:22:49.378Z,15.10
2022-12-04T21:25:15.932Z,16.05
2022-12-04T21:27:42.445Z,16.80
2022-12-04T21:30:09.648Z,14.95
2022-12-04T21:32:36.115Z,17.45
2022-12-04T21:35:02.736Z,16.42
2022-12-04T21:37:29.138Z,15.38
2022-12-04T21:39:55.854Z,15.70
2022-12-04T21:42:31.417Z,14.05
2022-12-04T21:44:59.862Z,14.40
2022-12-04T21:47:26.793Z,13.55
2022-12-04T21:49:54.288Z,13.90
2022-12-04T21:52:21.663Z,13.18
2022-12-04T21:54:50.555Z,13.25
2022-12-04T21:57:17.392Z,13.55
2022-12-04T21:59:44.347Z,12.98
2022-12-04T22:02:15.053Z,12.07
2022-12-04T22:04:42.246Z,12.60
2022-12-04T22:07:08.819Z,11.82
2022-12-04T22:09:36.640Z,12.30
2022-12-04T22:12:14.669Z,12.13
2022-12-04T22:14:49.811Z,11.60
2022-12-04T22:17:16.193Z,11.68
2022-12-04T22:19:42.577Z,11.63
2022-12-04T22:22:09.020Z,11.68
2022-12-04T22:24:35.407Z,11.75
2022-12-04T22:27:02.007Z,12.02
2022-12-04T22:32:15.057Z,12.43
2022-12-04T22:34:41.581Z,11.95
2022-12-04T22:37:07.948Z,12.57
2022-12-04T22:39:34.355Z,11.93
2022-12-04T22:42:00.756Z,11.40
2022-12-04T22:44:27.192Z,12.07
2022-12-04T22:46:53.662Z,12.05
2022-12-04T22:49:20.192Z,12.68
2022-12-04T22:51:46.715Z,12.77
2022-12-04T22:54:15.288Z,11.82
2022-12-04T22:56:44.038Z,11.48
2022-12-04T23:01:36.801Z,11.10
2022-12-04T23:04:03.765Z,13.35
2022-12-04T23:06:31.992Z,12.52
2022-12-04T23:09:08.303Z,12.75
2022-12-04T23:11:35.715Z,11.20
2022-12-04T23:14:04.186Z,12.68
2022-12-04T23:16:33.143Z,11.85
2022-12-04T23:19:00.004Z,12.15
2022-12-04T23:21:27.369Z,11.93
2022-12-04T23:23:55.529Z,12.80
2022-12-04T23:26:29.610Z,13.43
2022-12-04T23:28:57.004Z,12.20
2022-12-04T23:31:23.854Z,13.73
2022-12-04T23:33:50.444Z,12.97
2022-12-04T23:36:17.141Z,12.18
2022-12-04T23:38:44.807Z,12.48
2022-12-04T23:41:14.508Z,12.95
2022-12-04T23:43:42.175Z,11.73
2022-12-04T23:46:11.600Z,11.90
2022-12-04T23:48:40.137Z,11.40
2022-12-04T23:51:07.711Z,13.20
2022-12-04T23:53:34.747Z,11.70
2022-12-04T23:56:16.362Z,11.30
